createdAt,value
2018-07-09T00:00:04.752Z,28.8
2018-07-09T00:02:05.515Z,28.8
2018-07-09T00:04:04.740Z,28.8
2018-07-09T00:08:07.091Z,28.8
2018-07-09T00:10:05.117Z,28.8
2018-07-09T00:12:04.785Z,28.8
2018-07-09T00:14:05.488Z,28.8
2018-07-09T00:16:05.116Z,28.8
2018-07-09T00:18:05.563Z,28.8
2018-07-09T00:20:04.800Z,28.8
2018-07-09T00:22:05.470Z,28.8
2018-07-09T00:24:05.164Z,28.8
2018-07-09T00:26:04.876Z,28.8
2018-07-09T00:28:10.642Z,28.8
2018-07-09T00:30:05.299Z,28.8
2018-07-09T00:32:05.008Z,28.8
2018-07-09T00:34:04.825Z,28.8
2018-07-09T00:36:05.539Z,28.8
2018-07-09T00:38:05.218Z,28.8
2018-07-09T00:40:04.960Z,28.8
2018-07-09T00:42:04.644Z,28.8
2018-07-09T00:44:05.329Z,28.8
2018-07-09T00:46:04.996Z,28.8
2018-07-09T00:48:04.679Z,28.8
2018-07-09T00:50:05.361Z,28.8
2018-07-09T00:52:05.579Z,28.8
2018-07-09T00:54:07.772Z,28.8
2018-07-09T00:56:05.559Z,28.7
2018-07-09T00:58:05.270Z,28.8
2018-07-09T01:00:04.943Z,28.8
2018-07-09T01:02:07.228Z,28.8
2018-07-09T01:04:04.922Z,28.7
2018-07-09T01:06:07.158Z,28.7
2018-07-09T01:08:04.942Z,28.7
2018-07-09T01:10:04.684Z,28.8
2018-07-09T01:12:05.452Z,28.7
2018-07-09T01:14:05.148Z,28.8
2018-07-09T01:16:07.338Z,28.7
2018-07-09T01:18:07.761Z,28.7
2018-07-09T01:20:12.561Z,28.7
2018-07-09T01:22:05.361Z,28.7
2018-07-09T01:24:05.107Z,28.7
2018-07-09T01:26:04.816Z,28.7
2018-07-09T01:28:05.471Z,28.7
2018-07-09T01:30:05.175Z,28.7
2018-07-09T01:32:04.918Z,28.7
2018-07-09T01:34:05.149Z,28.7
2018-07-09T01:36:04.867Z,28.7
2018-07-09T01:38:08.107Z,28.7
2018-07-09T01:40:04.756Z,28.7
2018-07-09T01:42:05.417Z,28.7
2018-07-09T01:44:05.607Z,28.7
2018-07-09T01:46:09.864Z,28.7
2018-07-09T01:48:05.570Z,28.7
2018-07-09T01:50:05.278Z,28.7
2018-07-09T01:52:10.083Z,28.7
2018-07-09T01:54:05.332Z,28.7
2018-07-09T01:56:05.063Z,28.6
2018-07-09T01:58:07.367Z,28.6
2018-07-09T02:00:05.041Z,28.6
2018-07-09T02:02:04.730Z,28.6
2018-07-09T02:04:05.448Z,28.6
2018-07-09T02:06:07.767Z,28.6
2018-07-09T02:08:05.496Z,28.6
2018-07-09T02:10:05.311Z,28.6
2018-07-09T02:12:10.668Z,28.6
2018-07-09T02:14:07.915Z,28.6
2018-07-09T02:16:04.686Z,28.6
2018-07-09T02:18:08.221Z,28.6
2018-07-09T02:20:04.931Z,28.6
2018-07-09T02:22:04.662Z,28.6
2018-07-09T02:24:05.477Z,28.6
2018-07-09T02:26:05.268Z,28.6
2018-07-09T02:28:04.934Z,28.6
2018-07-09T02:30:05.207Z,28.6
2018-07-09T02:32:04.988Z,28.6
2018-07-09T02:34:09.793Z,28.6
2018-07-09T02:36:05.464Z,28.6
2018-07-09T02:38:05.193Z,28.6
2018-07-09T02:40:12.527Z,28.5
2018-07-09T02:42:09.817Z,28.6
2018-07-09T02:44:08.169Z,28.6
2018-07-09T02:46:04.887Z,28.5
2018-07-09T02:48:04.627Z,28.6
2018-07-09T02:50:05.340Z,28.6
2018-07-09T02:52:05.067Z,28.6
2018-07-09T02:54:04.760Z,28.6
2018-07-09T02:56:07.564Z,28.6
2018-07-09T02:58:05.221Z,28.5
2018-07-09T03:00:04.897Z,28.5
2018-07-09T03:02:04.673Z,28.5
2018-07-09T03:04:04.895Z,28.5
2018-07-09T03:06:10.702Z,28.5
2018-07-09T03:08:04.999Z,28.5
2018-07-09T03:10:04.775Z,28.5
2018-07-09T03:12:05.470Z,28.5
2018-07-09T03:14:05.213Z,28.5
2018-07-09T03:16:07.381Z,28.5
2018-07-09T03:18:05.427Z,28.5
2018-07-09T03:20:05.196Z,28.5
2018-07-09T03:22:04.935Z,28.5
2018-07-09T03:24:10.668Z,28.5
2018-07-09T03:26:05.400Z,28.5
2018-07-09T03:28:05.149Z,28.5
2018-07-09T03:30:04.878Z,28.5
2018-07-09T03:32:05.547Z,28.4
2018-07-09T03:34:05.366Z,28.5
2018-07-09T03:36:04.618Z,28.5
2018-07-09T03:38:05.318Z,28.5
2018-07-09T03:40:07.522Z,28.5
2018-07-09T03:42:04.719Z,28.4
2018-07-09T03:44:05.391Z,28.5
2018-07-09T03:46:05.072Z,28.5
2018-07-09T03:48:04.797Z,28.5
2018-07-09T03:50:05.475Z,28.4
2018-07-09T03:52:07.680Z,28.4
2018-07-09T03:54:05.347Z,28.4
2018-07-09T03:56:05.039Z,28.4
2018-07-09T03:58:07.797Z,28.4
2018-07-09T04:00:10.515Z,28.4
2018-07-09T04:02:05.212Z,28.4
2018-07-09T04:04:05.575Z,28.4
2018-07-09T04:06:05.255Z,28.5
2018-07-09T04:08:12.581Z,28.4
2018-07-09T04:10:05.307Z,28.5
2018-07-09T04:12:05.060Z,28.5
2018-07-09T04:14:05.452Z,28.4
2018-07-09T04:16:07.259Z,28.4
2018-07-09T04:18:04.700Z,28.5
2018-07-09T04:20:05.458Z,28.5
2018-07-09T04:22:07.665Z,28.5
2018-07-09T04:24:05.387Z,28.4
2018-07-09T04:26:05.534Z,28.5
2018-07-09T04:28:05.259Z,28.5
2018-07-09T04:30:04.938Z,28.5
2018-07-09T04:32:08.117Z,28.5
2018-07-09T04:34:07.324Z,28.5
2018-07-09T04:36:05.091Z,28.5
2018-07-09T04:38:04.783Z,28.5
2018-07-09T04:40:05.528Z,28.5
2018-07-09T04:42:12.568Z,28.5
2018-07-09T04:44:11.181Z,28.5
2018-07-09T04:46:04.990Z,28.5
2018-07-09T04:48:07.244Z,28.6
2018-07-09T04:50:05.056Z,28.5
2018-07-09T04:52:07.307Z,28.6
2018-07-09T04:54:07.335Z,28.6
2018-07-09T04:56:07.531Z,28.6
2018-07-09T04:58:07.268Z,28.6
2018-07-09T05:00:04.934Z,28.6
2018-07-09T05:02:08.122Z,28.6
2018-07-09T05:04:07.342Z,28.6
2018-07-09T05:06:05.081Z,28.6
2018-07-09T05:08:05.295Z,28.6
2018-07-09T05:10:04.956Z,28.7
2018-07-09T05:12:05.599Z,28.7
2018-07-09T05:14:10.374Z,28.7
2018-07-09T05:16:05.079Z,28.6
2018-07-09T05:18:07.529Z,28.7
2018-07-09T05:20:07.733Z,28.7
2018-07-09T05:22:05.433Z,28.7
2018-07-09T05:24:04.739Z,28.7
2018-07-09T05:26:04.705Z,28.7
2018-07-09T05:28:05.554Z,28.7
2018-07-09T05:30:08.042Z,28.7
2018-07-09T05:32:07.806Z,28.8
2018-07-09T05:34:05.525Z,28.8
2018-07-09T05:36:05.305Z,28.8
2018-07-09T05:38:04.974Z,28.8
2018-07-09T05:40:12.298Z,28.8
2018-07-09T05:42:05.568Z,28.8
2018-07-09T05:44:07.778Z,28.8
2018-07-09T05:46:04.941Z,28.8
2018-07-09T05:48:04.659Z,28.9
2018-07-09T05:50:05.371Z,28.9
2018-07-09T05:52:05.120Z,28.9
2018-07-09T05:54:05.361Z,28.9
2018-07-09T05:56:05.068Z,28.9
2018-07-09T05:58:04.753Z,29
2018-07-09T06:00:05.509Z,29
2018-07-09T06:02:07.756Z,29
2018-07-09T06:04:05.405Z,29
2018-07-09T06:06:05.608Z,29
2018-07-09T06:08:07.344Z,29
2018-07-09T06:10:04.982Z,29
2018-07-09T06:12:07.536Z,29
2018-07-09T06:14:05.316Z,29
2018-07-09T06:16:07.742Z,29
2018-07-09T06:18:04.694Z,29
2018-07-09T06:20:07.488Z,29
2018-07-09T06:22:10.172Z,29
2018-07-09T06:24:04.865Z,29
2018-07-09T06:26:05.560Z,29
2018-07-09T06:28:07.764Z,29
2018-07-09T06:30:05.411Z,29
2018-07-09T06:32:05.103Z,29
2018-07-09T06:34:04.878Z,29
2018-07-09T06:36:05.583Z,29
2018-07-09T06:38:04.881Z,29
2018-07-09T06:40:05.550Z,29
2018-07-09T06:42:04.761Z,29
2018-07-09T06:44:05.535Z,29
2018-07-09T06:46:04.762Z,29.1
2018-07-09T06:48:04.711Z,29.1
2018-07-09T06:50:04.689Z,29.1
2018-07-09T06:52:04.709Z,29.1
2018-07-09T06:54:05.416Z,29.1
2018-07-09T06:56:05.337Z,29.1
2018-07-09T06:58:07.547Z,29
2018-07-09T07:00:05.293Z,29
2018-07-09T07:02:10.043Z,29.1
2018-07-09T07:04:04.876Z,29.1
2018-07-09T07:06:05.540Z,29.1
2018-07-09T07:08:05.206Z,29.1
2018-07-09T07:10:04.908Z,29.1
2018-07-09T07:12:05.188Z,28.9
2018-07-09T07:14:04.928Z,28.8
2018-07-09T07:16:07.177Z,28.7
2018-07-09T07:18:05.740Z,28.6
2018-07-09T07:20:05.859Z,28.6
2018-07-09T07:22:05.647Z,28.6
2018-07-09T07:24:05.345Z,28.5
2018-07-09T07:26:05.086Z,28.3
2018-07-09T07:28:04.881Z,28.4
2018-07-09T07:30:05.622Z,28.4
2018-07-09T07:32:05.278Z,28.4
2018-07-09T07:34:07.538Z,28.4
2018-07-09T07:36:05.206Z,28.5
2018-07-09T07:38:05.418Z,28.4
2018-07-09T07:40:05.038Z,28.4
2018-07-09T07:42:07.210Z,28.2
2018-07-09T07:44:04.970Z,28.2
2018-07-09T07:46:07.799Z,28.2
2018-07-09T07:48:05.507Z,28.2
2018-07-09T07:50:05.279Z,28.1
2018-07-09T07:52:12.805Z,28.1
2018-07-09T07:54:05.516Z,28
2018-07-09T07:56:05.214Z,28
2018-07-09T07:58:04.940Z,28.1
2018-07-09T08:00:04.667Z,28.2
2018-07-09T08:02:05.336Z,28.2
2018-07-09T08:04:05.084Z,28.2
2018-07-09T08:06:04.880Z,28.1
2018-07-09T08:08:05.612Z,28.1
2018-07-09T08:10:05.368Z,28.1
2018-07-09T08:12:59.658Z,28.1
2018-07-09T08:14:04.627Z,28.1
2018-07-09T08:16:05.354Z,28.1
2018-07-09T08:18:07.922Z,28.1
2018-07-09T08:20:04.619Z,28.1
2018-07-09T08:22:10.409Z,27.8
2018-07-09T08:24:07.648Z,27.8
2018-07-09T08:26:05.366Z,27.8
2018-07-09T08:28:05.100Z,27.8
2018-07-09T08:30:04.886Z,27.8
2018-07-09T08:32:08.141Z,27.9
2018-07-09T08:34:04.929Z,27.9
2018-07-09T08:36:04.693Z,28
2018-07-09T08:38:05.440Z,28
2018-07-09T08:40:05.304Z,28
2018-07-09T08:42:05.052Z,28
2018-07-09T08:44:04.780Z,28
2018-07-09T08:46:07.989Z,27.9
2018-07-09T08:48:07.297Z,27.9
2018-07-09T08:50:05.034Z,27.9
2018-07-09T08:52:05.332Z,27.9
2018-07-09T08:54:07.570Z,27.7
2018-07-09T08:56:05.436Z,27.6
2018-07-09T08:58:05.095Z,27.7
2018-07-09T09:00:04.885Z,27.7
2018-07-09T09:02:05.630Z,27.8
2018-07-09T09:04:05.382Z,28
2018-07-09T09:06:05.106Z,28
2018-07-09T09:08:12.913Z,28.2
2018-07-09T09:10:05.810Z,28.1
2018-07-09T09:12:04.698Z,28.2
2018-07-09T09:14:07.171Z,28.3
2018-07-09T09:16:04.833Z,28.2
2018-07-09T09:18:04.732Z,28.3
2018-07-09T09:20:04.938Z,28.3
2018-07-09T09:22:04.711Z,28.3
2018-07-09T09:24:09.971Z,28.4
2018-07-09T09:26:05.195Z,28.4
2018-07-09T09:28:07.530Z,28.4
2018-07-09T09:30:05.218Z,28.4
2018-07-09T09:32:04.909Z,28.4
2018-07-09T09:34:10.158Z,28.5
2018-07-09T09:36:07.401Z,28.5
2018-07-09T09:38:05.128Z,28.5
2018-07-09T09:40:04.833Z,28.5
2018-07-09T09:42:05.591Z,28.5
2018-07-09T09:44:05.304Z,28.5
2018-07-09T09:46:04.958Z,28.6
2018-07-09T09:48:04.633Z,28.6
2018-07-09T09:50:05.425Z,28.6
2018-07-09T09:52:05.198Z,28.5
2018-07-09T09:54:04.881Z,28.6
2018-07-09T09:56:05.549Z,28.6
2018-07-09T09:58:05.263Z,28.6
2018-07-09T10:00:07.513Z,28.8
2018-07-09T10:02:05.185Z,28.7
2018-07-09T10:04:04.879Z,28.8
2018-07-09T10:06:07.667Z,28.8
2018-07-09T10:08:04.693Z,28.8
2018-07-09T10:10:05.428Z,28.9
2018-07-09T10:12:07.697Z,28.8
2018-07-09T10:14:05.578Z,28.8
2018-07-09T10:16:05.291Z,28.7
2018-07-09T10:18:05.198Z,28.6
2018-07-09T10:20:04.887Z,28.6
2018-07-09T10:22:08.090Z,28.3
2018-07-09T10:24:09.827Z,28.3
2018-07-09T10:26:10.616Z,28.2
2018-07-09T10:28:05.318Z,28.3
2018-07-09T10:30:05.079Z,28.2
2018-07-09T10:32:04.852Z,28.1
2018-07-09T10:34:05.504Z,28
2018-07-09T10:36:05.232Z,27.9
2018-07-09T10:38:04.904Z,28
2018-07-09T10:40:05.589Z,27.9
2018-07-09T10:42:05.438Z,27.9
2018-07-09T10:44:05.136Z,28
2018-07-09T10:46:10.127Z,28.1
2018-07-09T10:48:07.329Z,28
2018-07-09T10:50:04.610Z,28
2018-07-09T10:52:05.360Z,27.9
2018-07-09T10:54:05.103Z,28
2018-07-09T10:56:04.825Z,28
2018-07-09T10:58:06.292Z,27.9
2018-07-09T11:00:07.574Z,27.9
2018-07-09T11:02:05.283Z,27.9
2018-07-09T11:04:05.231Z,27.9
2018-07-09T11:06:04.898Z,27.9
2018-07-09T11:08:05.563Z,27.9
2018-07-09T11:10:05.240Z,28
2018-07-09T11:12:12.600Z,27.9
2018-07-09T11:14:10.410Z,27.8
2018-07-09T11:16:05.063Z,27.8
2018-07-09T11:18:15.699Z,27.8
2018-07-09T11:20:06.036Z,27.8
2018-07-09T11:22:04.714Z,27.9
2018-07-09T11:24:05.413Z,27.7
2018-07-09T11:26:05.165Z,27.7
2018-07-09T11:28:04.875Z,27.7
2018-07-09T11:30:05.509Z,27.8
2018-07-09T11:32:10.231Z,27.8
2018-07-09T11:34:04.959Z,27.8
2018-07-09T11:36:07.346Z,27.8
2018-07-09T11:38:05.636Z,27.8
2018-07-09T11:40:05.345Z,27.8
2018-07-09T11:42:05.174Z,27.8
2018-07-09T11:44:05.097Z,27.7
2018-07-09T11:46:04.801Z,27.7
2018-07-09T11:48:05.512Z,27.8
2018-07-09T11:50:05.184Z,27.9
2018-07-09T11:52:05.005Z,27.9
2018-07-09T11:54:04.874Z,27.9
2018-07-09T11:56:05.535Z,28
2018-07-09T11:58:05.173Z,28
2018-07-09T12:00:04.883Z,28
2018-07-09T12:02:08.099Z,28.1
2018-07-09T12:04:07.300Z,28.1
2018-07-09T12:06:08.525Z,28.1
2018-07-09T12:08:06.219Z,28.1
2018-07-09T12:10:04.908Z,28.1
2018-07-09T12:12:05.572Z,28.1
2018-07-09T12:14:07.823Z,28.1
2018-07-09T12:16:05.084Z,28.2
2018-07-09T12:18:05.577Z,28.2
2018-07-09T12:20:07.800Z,28.2
2018-07-09T12:22:05.489Z,28.1
2018-07-09T12:24:07.770Z,28.2
2018-07-09T12:26:05.434Z,28.2
2018-07-09T12:28:07.732Z,28.2
2018-07-09T12:30:10.513Z,28.3
2018-07-09T12:32:05.213Z,28.2
2018-07-09T12:34:04.883Z,28.3
2018-07-09T12:36:05.630Z,28.3
2018-07-09T12:38:05.548Z,28.3
2018-07-09T12:40:05.264Z,28.3
2018-07-09T12:42:13.175Z,28.3
2018-07-09T12:44:04.866Z,28.3
2018-07-09T12:46:05.526Z,28.3
2018-07-09T12:48:05.195Z,28.3
2018-07-09T12:50:07.422Z,28.4
2018-07-09T12:52:07.617Z,28.3
2018-07-09T12:54:04.814Z,28.3
2018-07-09T12:56:05.056Z,28.4
2018-07-09T12:58:04.782Z,28.4
2018-07-09T13:00:10.040Z,28.3
2018-07-09T13:02:05.283Z,28.3
2018-07-09T13:04:07.545Z,28.4
2018-07-09T13:06:05.249Z,28.4
2018-07-09T13:08:04.911Z,28.4
2018-07-09T13:10:04.579Z,28.4
2018-07-09T13:12:10.337Z,28.4
2018-07-09T13:14:05.066Z,28.4
2018-07-09T13:16:04.808Z,28.5
2018-07-09T13:18:04.674Z,28.5
2018-07-09T13:20:05.359Z,28.5
2018-07-09T13:22:05.578Z,28.5
2018-07-09T13:24:07.878Z,28.6
2018-07-09T13:26:05.595Z,28.5
2018-07-09T13:28:15.463Z,28.6
2018-07-09T13:30:05.160Z,28.6
2018-07-09T13:32:04.851Z,28.6
2018-07-09T13:34:05.585Z,28.6
2018-07-09T13:36:07.863Z,28.7
2018-07-09T13:38:05.562Z,28.7
2018-07-09T13:40:05.233Z,28.7
2018-07-09T13:42:04.914Z,28.7
2018-07-09T13:44:05.672Z,28.7
2018-07-09T13:46:05.395Z,28.8
2018-07-09T13:48:05.190Z,28.8
2018-07-09T13:50:09.937Z,28.8
2018-07-09T13:52:05.536Z,28.8
2018-07-09T13:54:05.299Z,28.8
2018-07-09T13:56:05.027Z,28.8
2018-07-09T13:58:04.762Z,28.9
2018-07-09T14:00:05.457Z,28.9
2018-07-09T14:02:05.340Z,28.8
2018-07-09T14:04:05.085Z,28.9
2018-07-09T14:06:05.036Z,28.9
2018-07-09T14:08:04.772Z,28.9
2018-07-09T14:10:05.527Z,28.9
2018-07-09T14:12:05.386Z,28.9
2018-07-09T14:14:09.853Z,29
2018-07-09T14:16:08.120Z,29
2018-07-09T14:18:05.159Z,29
2018-07-09T14:20:04.876Z,29
2018-07-09T14:22:05.566Z,29
2018-07-09T14:24:04.832Z,29
2018-07-09T14:26:05.479Z,29
2018-07-09T14:28:05.200Z,29.1
2018-07-09T14:30:04.898Z,29.1
2018-07-09T14:32:05.584Z,29.1
2018-07-09T14:34:05.313Z,29.1
2018-07-09T14:36:04.999Z,29
2018-07-09T14:38:04.679Z,29
2018-07-09T14:40:05.383Z,29.1
2018-07-09T14:42:08.115Z,29.1
2018-07-09T14:44:09.870Z,29.1
2018-07-09T14:46:04.756Z,29.1
2018-07-09T14:48:04.767Z,29.1
2018-07-09T14:50:13.013Z,29.1
2018-07-09T14:52:07.200Z,29.1
2018-07-09T14:54:09.937Z,29.1
2018-07-09T14:56:05.171Z,29.1
2018-07-09T14:58:04.889Z,29.1
2018-07-09T15:00:05.631Z,29.1
2018-07-09T15:02:05.333Z,29.1
2018-07-09T15:04:05.096Z,29.1
2018-07-09T15:06:04.775Z,29.1
2018-07-09T15:08:05.219Z,29.1
2018-07-09T15:10:04.978Z,29.1
2018-07-09T15:12:04.764Z,29.1
2018-07-09T15:14:05.516Z,29.1
2018-07-09T15:16:12.852Z,29.1
2018-07-09T15:18:09.800Z,29.1
2018-07-09T15:20:05.480Z,29.1
2018-07-09T15:22:05.207Z,29.1
2018-07-09T15:24:07.472Z,29.1
2018-07-09T15:26:10.187Z,29.1
2018-07-09T15:28:05.414Z,29.1
2018-07-09T15:30:10.182Z,29.1
2018-07-09T15:32:12.515Z,29.1
2018-07-09T15:34:05.215Z,29.1
2018-07-09T15:36:04.919Z,29.1
2018-07-09T15:38:05.474Z,29.1
2018-07-09T15:40:05.155Z,29
2018-07-09T15:42:05.372Z,29.1
2018-07-09T15:44:07.618Z,29.1
2018-07-09T15:46:05.495Z,29
2018-07-09T15:48:05.169Z,29.1
2018-07-09T15:50:04.864Z,29.1
2018-07-09T15:52:10.816Z,29
2018-07-09T15:54:08.247Z,29.1
2018-07-09T15:56:05.022Z,29.1
2018-07-09T15:58:05.279Z,29
2018-07-09T16:00:05.099Z,29.1
2018-07-09T16:02:05.168Z,29.1
2018-07-09T16:04:10.660Z,29.1
2018-07-09T16:06:04.926Z,29.1
2018-07-09T16:08:04.820Z,29.1
2018-07-09T16:10:05.554Z,29
2018-07-09T16:12:05.262Z,29
2018-07-09T16:14:04.981Z,29.1
2018-07-09T16:16:04.774Z,29
2018-07-09T16:18:04.707Z,29
2018-07-09T16:20:05.346Z,29
2018-07-09T16:22:08.090Z,29
2018-07-09T16:24:05.360Z,29
2018-07-09T16:26:05.130Z,29
2018-07-09T16:28:04.710Z,29
2018-07-09T16:30:05.408Z,29
2018-07-09T16:32:10.183Z,29
2018-07-09T16:34:05.373Z,28.9
2018-07-09T16:36:05.584Z,29
2018-07-09T16:38:05.322Z,29
2018-07-09T16:40:07.559Z,29
2018-07-09T16:42:05.250Z,29
2018-07-09T16:44:04.948Z,29
2018-07-09T16:46:04.660Z,29
2018-07-09T16:48:07.485Z,29
2018-07-09T16:50:05.209Z,29
2018-07-09T16:52:05.014Z,29
2018-07-09T16:54:14.933Z,29
2018-07-09T16:56:09.737Z,29
2018-07-09T16:58:04.720Z,29
2018-07-09T17:00:07.540Z,29
2018-07-09T17:02:05.252Z,29
2018-07-09T17:04:04.943Z,29
2018-07-09T17:06:04.698Z,29
2018-07-09T17:08:05.404Z,29.1
2018-07-09T17:10:05.187Z,29
2018-07-09T17:12:09.911Z,29
2018-07-09T17:14:07.787Z,29
2018-07-09T17:16:05.499Z,29
2018-07-09T17:18:05.401Z,29
2018-07-09T17:20:10.165Z,29
2018-07-09T17:22:04.859Z,29
2018-07-09T17:24:05.112Z,29
2018-07-09T17:26:04.909Z,29
2018-07-09T17:28:07.426Z,29
2018-07-09T17:30:05.433Z,29
2018-07-09T17:32:05.482Z,29
2018-07-09T17:34:05.513Z,28.9
2018-07-09T17:36:07.733Z,28.9
2018-07-09T17:38:05.414Z,28.9
2018-07-09T17:40:05.177Z,28.9
2018-07-09T17:42:04.975Z,28.8
2018-07-09T17:44:04.676Z,28.7
2018-07-09T17:46:04.911Z,28.7
2018-07-09T17:48:08.330Z,28.6
2018-07-09T17:50:05.596Z,28.6
2018-07-09T17:52:05.553Z,28.6
2018-07-09T17:54:08.474Z,28.6
2018-07-09T17:56:09.106Z,28.6
2018-07-09T17:58:05.574Z,28.4
2018-07-09T18:00:10.525Z,28.4
2018-07-09T18:02:08.509Z,28.4
2018-07-09T18:04:05.715Z,28.4
2018-07-09T18:06:05.634Z,28.5
2018-07-09T18:08:04.808Z,28.4
2018-07-09T18:10:05.511Z,28.4
2018-07-09T18:12:04.810Z,28.3
2018-07-09T18:14:10.084Z,28.3
2018-07-09T18:16:04.825Z,28.3
2018-07-09T18:18:07.234Z,28.2
2018-07-09T18:20:05.464Z,28.2
2018-07-09T18:22:07.883Z,28.2
2018-07-09T18:24:05.617Z,28.2
2018-07-09T18:26:05.357Z,28.2
2018-07-09T18:28:08.084Z,28.3
2018-07-09T18:30:04.840Z,28.3
2018-07-09T18:32:05.493Z,28.2
2018-07-09T18:34:05.268Z,28.3
2018-07-09T18:36:05.947Z,28.3
2018-07-09T18:38:07.156Z,28.3
2018-07-09T18:40:05.004Z,28.3
2018-07-09T18:42:05.064Z,28.2
2018-07-09T18:44:04.951Z,28.2
2018-07-09T18:46:04.656Z,28.1
2018-07-09T18:48:05.453Z,28.2
2018-07-09T18:50:04.726Z,28.2
2018-07-09T18:52:07.952Z,28.1
2018-07-09T18:54:04.690Z,28.1
2018-07-09T18:56:08.168Z,28.2
2018-07-09T18:58:05.288Z,28.2
2018-07-09T19:00:05.291Z,28.1
2018-07-09T19:02:04.715Z,28.2
2018-07-09T19:04:15.545Z,28.1
2018-07-09T19:06:10.348Z,28.1
2018-07-09T19:08:05.080Z,28.1
2018-07-09T19:10:05.033Z,28.1
2018-07-09T19:12:04.969Z,28
2018-07-09T19:14:07.399Z,28
2018-07-09T19:16:07.723Z,27.9
2018-07-09T19:18:15.751Z,27.9
2018-07-09T19:20:05.404Z,27.9
2018-07-09T19:22:05.631Z,28
2018-07-09T19:24:05.550Z,28
2018-07-09T19:26:04.801Z,28
2018-07-09T19:28:07.530Z,28
2018-07-09T19:30:04.827Z,28
2018-07-09T19:32:10.647Z,28
2018-07-09T19:34:05.169Z,28
2018-07-09T19:36:05.129Z,27.8
2018-07-09T19:38:04.868Z,27.8
2018-07-09T19:40:05.536Z,27.8
2018-07-09T19:42:04.785Z,27.8
2018-07-09T19:44:05.531Z,27.8
2018-07-09T19:46:05.330Z,27.8
2018-07-09T19:48:05.538Z,27.8
2018-07-09T19:50:07.833Z,27.7
2018-07-09T19:52:08.004Z,27.7
2018-07-09T19:54:07.375Z,27.8
2018-07-09T19:56:05.076Z,27.8
2018-07-09T19:58:07.328Z,27.7
2018-07-09T20:00:05.029Z,27.8
2018-07-09T20:02:09.947Z,27.7
2018-07-09T20:04:07.636Z,27.7
2018-07-09T20:06:05.328Z,27.7
2018-07-09T20:08:05.138Z,27.7
2018-07-09T20:10:10.004Z,27.7
2018-07-09T20:12:04.671Z,27.6
2018-07-09T20:14:05.176Z,27.6
2018-07-09T20:16:04.837Z,27.6
2018-07-09T20:18:05.301Z,27.6
2018-07-09T20:20:05.042Z,27.7
2018-07-09T20:22:04.752Z,27.7
2018-07-09T20:24:05.671Z,27.7
2018-07-09T20:26:05.101Z,27.7
2018-07-09T20:28:04.771Z,27.7
2018-07-09T20:30:07.987Z,27.7
2018-07-09T20:32:04.665Z,27.7
2018-07-09T20:34:05.382Z,27.7
2018-07-09T20:36:05.288Z,27.7
2018-07-09T20:38:07.542Z,27.7
2018-07-09T20:40:11.310Z,27.7
2018-07-09T20:42:05.435Z,27.7
2018-07-09T20:44:04.664Z,27.7
2018-07-09T20:46:05.381Z,27.7
2018-07-09T20:48:05.093Z,27.8
2018-07-09T20:50:07.401Z,27.8
2018-07-09T20:52:10.176Z,27.8
2018-07-09T20:54:05.114Z,27.8
2018-07-09T20:56:04.821Z,27.8
2018-07-09T20:58:05.682Z,27.8
2018-07-09T21:00:05.383Z,27.8
2018-07-09T21:02:05.102Z,27.8
2018-07-09T21:04:04.814Z,27.7
2018-07-09T21:06:05.203Z,27.8
2018-07-09T21:08:04.994Z,27.7
2018-07-09T21:10:04.693Z,27.7
2018-07-09T21:12:07.947Z,27.7
2018-07-09T21:14:04.649Z,27.7
2018-07-09T21:16:08.085Z,27.8
2018-07-09T21:18:05.219Z,27.7
2018-07-09T21:20:07.476Z,27.8
2018-07-09T21:22:05.187Z,27.7
2018-07-09T21:24:04.843Z,27.8
2018-07-09T21:26:05.517Z,27.8
2018-07-09T21:28:05.318Z,27.8
2018-07-09T21:30:04.996Z,27.7
2018-07-09T21:32:04.670Z,27.8
2018-07-09T21:34:05.406Z,27.7
2018-07-09T21:36:07.164Z,27.7
2018-07-09T21:38:09.901Z,27.8
2018-07-09T21:40:10.764Z,27.8
2018-07-09T21:42:04.677Z,27.8
2018-07-09T21:44:05.416Z,27.8
2018-07-09T21:46:07.614Z,27.8
2018-07-09T21:48:10.564Z,27.8
2018-07-09T21:50:04.696Z,27.9
2018-07-09T21:52:05.384Z,27.9
2018-07-09T21:54:05.150Z,27.9
2018-07-09T21:56:07.359Z,27.9
2018-07-09T21:58:05.005Z,27.9
2018-07-09T22:00:04.669Z,27.9
2018-07-09T22:02:05.390Z,27.9
2018-07-09T22:04:07.611Z,27.9
2018-07-09T22:06:07.845Z,27.9
2018-07-09T22:08:05.153Z,27.9
2018-07-09T22:10:12.628Z,27.9
2018-07-09T22:12:07.875Z,27.9
2018-07-09T22:14:07.205Z,28
2018-07-09T22:16:04.922Z,28
2018-07-09T22:18:05.028Z,27.9
2018-07-09T22:20:05.269Z,27.9
2018-07-09T22:22:04.960Z,28
2018-07-09T22:24:04.671Z,28
2018-07-09T22:26:05.377Z,27.9
2018-07-09T22:28:07.775Z,27.9
2018-07-09T22:30:10.492Z,28
2018-07-09T22:32:05.211Z,28
2018-07-09T22:34:04.913Z,28
2018-07-09T22:36:05.156Z,28
2018-07-09T22:38:07.516Z,28
2018-07-09T22:40:05.354Z,28
2018-07-09T22:42:05.425Z,28
2018-07-09T22:44:05.607Z,28
2018-07-09T22:46:07.855Z,28.1
2018-07-09T22:48:05.073Z,28
2018-07-09T22:50:07.921Z,28.1
2018-07-09T22:52:05.197Z,28.1
2018-07-09T22:54:04.865Z,28.1
2018-07-09T22:56:08.137Z,28.1
2018-07-09T22:58:07.461Z,28.1
2018-07-09T23:00:05.130Z,28.1
2018-07-09T23:02:04.857Z,28.1
2018-07-09T23:04:05.518Z,28.1
2018-07-09T23:06:15.290Z,28.1
2018-07-09T23:08:05.552Z,28.1
2018-07-09T23:10:05.306Z,28.2
2018-07-09T23:12:04.960Z,28.2
2018-07-09T23:14:12.728Z,28.1
2018-07-09T23:16:04.916Z,28.1
2018-07-09T23:18:04.942Z,28.2
2018-07-09T23:20:04.668Z,28.2
2018-07-09T23:22:05.410Z,28.2
2018-07-09T23:24:05.624Z,28.2
2018-07-09T23:26:05.358Z,28.2
2018-07-09T23:28:04.639Z,28.2
2018-07-09T23:30:05.286Z,28.2
2018-07-09T23:32:05.185Z,28.2
2018-07-09T23:34:07.453Z,28.2
2018-07-09T23:36:07.720Z,28.2
2018-07-09T23:38:05.415Z,28.2
2018-07-09T23:40:07.651Z,28.2
2018-07-09T23:42:05.374Z,28.2
2018-07-09T23:44:05.247Z,28.2
2018-07-09T23:46:05.463Z,28.2
2018-07-09T23:48:05.156Z,28.2
2018-07-09T23:50:04.902Z,28.2
2018-07-09T23:52:10.723Z,28.2
2018-07-09T23:54:05.426Z,28.2
2018-07-09T23:56:05.071Z,28.2
2018-07-09T23:58:04.835Z,28.2
